Kezdőlap
METAR-TAF:

METAR-TAF

Repülőterek :

Wolf Creek Pass

Pagosa Springs, Colorado, Amerikai Egyesült Államok

földrajzi szélesség: 37-27-05N, földrajzi hosszúság: 106-48-01W, magasság: 3584 m

Jelenlegi meteorológiai megfigyelések

A jelentés 29 perccel ezelõtt készült, 23:15 UTC
Dél-délnyugati szél 14 kt széllökések: 24 kt
Hőmérséklet 7°C
Páratartalom 39%
Légköri nyomás 1030 hPa
Látótávolság: 16.1 km
Szórványos felhőzet 7000 lábon

METAR: KCPW 262315Z AUTO 21014G24KT 10SM SCT070 07/M06 A3041 RMK AO2

Idő: 17:44 (23:44 UTC)


TAF: hiányzik

Meteorológiai megfigyelések és előrejelzések több, mint 4000 repülőtéren (METAR és TAF jelentéseket).

A térképen piros és sárga pontok jelzik az elérhető meteorológiai állomásokat.

Mozgassa az egeret a pont fölött, hogy megjelenjen az állomás neve.

Azután kattintson az időjárási megfigyelések és előrejelzések megtekintéséhez.

A térkép megváltoztatása: kattintson a fekete keresztel jelölt zöld gombra ráközelítéshez, a vonallal jelölt zöld gombra távolításhoz, vagy a zöld nyilakra a szomszédos térképek eléréséhez.


METAR-TAF: